sensor_id;sensor_type;location;lat;lon;timestamp;P1;durP1;ratioP1;P2;durP2;ratioP2
5458;SDS011;2752;49.992;8.422;2023-06-14T00:01:11;6.57;;;4.07;;
5458;SDS011;2752;49.992;8.422;2023-06-14T00:03:38;7.50;;;3.90;;
5458;SDS011;2752;49.992;8.422;2023-06-14T00:06:05;8.70;;;3.80;;
5458;SDS011;2752;49.992;8.422;2023-06-14T00:08:32;6.73;;;3.90;;
5458;SDS011;2752;49.992;8.422;2023-06-14T00:11:00;7.60;;;3.53;;
5458;SDS011;2752;49.992;8.422;2023-06-14T00:13:27;9.43;;;3.73;;
5458;SDS011;2752;49.992;8.422;2023-06-14T00:15:53;8.50;;;4.17;;
5458;SDS011;2752;49.992;8.422;2023-06-14T00:18:20;10.30;;;4.00;;
5458;SDS011;2752;49.992;8.422;2023-06-14T00:20:49;5.40;;;3.60;;
5458;SDS011;2752;49.992;8.422;2023-06-14T00:23:16;8.17;;;4.23;;
5458;SDS011;2752;49.992;8.422;2023-06-14T00:25:43;6.60;;;3.97;;
5458;SDS011;2752;49.992;8.422;2023-06-14T00:28:11;6.10;;;3.60;;
5458;SDS011;2752;49.992;8.422;2023-06-14T00:30:38;8.10;;;3.60;;
5458;SDS011;2752;49.992;8.422;2023-06-14T00:33:05;6.40;;;3.53;;
5458;SDS011;2752;49.992;8.422;2023-06-14T00:35:31;5.87;;;3.50;;
5458;SDS011;2752;49.992;8.422;2023-06-14T00:37:58;6.53;;;3.57;;
5458;SDS011;2752;49.992;8.422;2023-06-14T00:40:25;6.23;;;3.63;;
5458;SDS011;2752;49.992;8.422;2023-06-14T00:42:51;6.80;;;3.53;;
5458;SDS011;2752;49.992;8.422;2023-06-14T00:45:19;7.90;;;3.87;;
5458;SDS011;2752;49.992;8.422;2023-06-14T00:47:46;6.07;;;3.67;;
5458;SDS011;2752;49.992;8.422;2023-06-14T00:50:16;4.57;;;2.73;;
5458;SDS011;2752;49.992;8.422;2023-06-14T00:52:43;7.80;;;4.10;;
5458;SDS011;2752;49.992;8.422;2023-06-14T00:55:09;5.83;;;3.63;;
5458;SDS011;2752;49.992;8.422;2023-06-14T00:57:36;6.93;;;3.40;;
5458;SDS011;2752;49.992;8.422;2023-06-14T01:00:05;3.20;;;2.53;;
5458;SDS011;2752;49.992;8.422;2023-06-14T01:02:35;7.67;;;3.40;;
5458;SDS011;2752;49.992;8.422;2023-06-14T01:05:02;4.77;;;3.03;;
5458;SDS011;2752;49.992;8.422;2023-06-14T01:07:33;5.23;;;3.53;;
5458;SDS011;2752;49.992;8.422;2023-06-14T01:10:12;5.60;;;3.60;;
5458;SDS011;2752;49.992;8.422;2023-06-14T01:12:50;4.43;;;3.10;;
5458;SDS011;2752;49.992;8.422;2023-06-14T01:15:22;11.60;;;3.93;;
5458;SDS011;2752;49.992;8.422;2023-06-14T01:17:50;6.40;;;3.27;;
5458;SDS011;2752;49.992;8.422;2023-06-14T01:20:19;4.73;;;3.30;;
5458;SDS011;2752;49.992;8.422;2023-06-14T01:22:51;6.93;;;3.10;;
5458;SDS011;2752;49.992;8.422;2023-06-14T01:25:19;9.30;;;3.33;;
5458;SDS011;2752;49.992;8.422;2023-06-14T01:27:48;7.73;;;3.27;;
5458;SDS011;2752;49.992;8.422;2023-06-14T01:30:15;10.53;;;4.30;;
5458;SDS011;2752;49.992;8.422;2023-06-14T01:32:44;4.53;;;3.03;;
5458;SDS011;2752;49.992;8.422;2023-06-14T01:35:11;4.67;;;3.33;;
5458;SDS011;2752;49.992;8.422;2023-06-14T01:37:38;6.13;;;3.60;;
5458;SDS011;2752;49.992;8.422;2023-06-14T01:40:08;6.60;;;3.60;;
5458;SDS011;2752;49.992;8.422;2023-06-14T01:42:36;6.37;;;3.43;;
5458;SDS011;2752;49.992;8.422;2023-06-14T01:45:05;5.90;;;3.60;;
5458;SDS011;2752;49.992;8.422;2023-06-14T01:47:32;5.70;;;3.00;;
5458;SDS011;2752;49.992;8.422;2023-06-14T01:50:00;5.90;;;3.33;;
5458;SDS011;2752;49.992;8.422;2023-06-14T01:52:27;5.63;;;3.00;;
5458;SDS011;2752;49.992;8.422;2023-06-14T01:54:54;6.20;;;3.50;;
5458;SDS011;2752;49.992;8.422;2023-06-14T01:57:22;11.93;;;3.80;;
5458;SDS011;2752;49.992;8.422;2023-06-14T01:59:50;25.43;;;3.70;;
5458;SDS011;2752;49.992;8.422;2023-06-14T02:02:16;6.40;;;3.67;;
5458;SDS011;2752;49.992;8.422;2023-06-14T02:04:43;5.47;;;3.33;;
5458;SDS011;2752;49.992;8.422;2023-06-14T02:07:12;6.70;;;3.20;;
5458;SDS011;2752;49.992;8.422;2023-06-14T02:09:39;6.17;;;3.60;;
5458;SDS011;2752;49.992;8.422;2023-06-14T02:12:06;5.77;;;3.37;;
5458;SDS011;2752;49.992;8.422;2023-06-14T02:14:35;5.70;;;3.63;;
5458;SDS011;2752;49.992;8.422;2023-06-14T02:17:03;4.60;;;2.90;;
5458;SDS011;2752;49.992;8.422;2023-06-14T02:19:31;5.20;;;3.27;;
5458;SDS011;2752;49.992;8.422;2023-06-14T02:21:58;4.87;;;2.93;;
5458;SDS011;2752;49.992;8.422;2023-06-14T02:24:25;5.70;;;3.17;;
5458;SDS011;2752;49.992;8.422;2023-06-14T02:26:51;6.77;;;3.13;;
5458;SDS011;2752;49.992;8.422;2023-06-14T02:29:18;6.53;;;3.47;;
5458;SDS011;2752;49.992;8.422;2023-06-14T02:31:46;8.60;;;3.50;;
5458;SDS011;2752;49.992;8.422;2023-06-14T02:34:13;6.53;;;3.20;;
5458;SDS011;2752;49.992;8.422;2023-06-14T02:36:41;5.80;;;3.30;;
5458;SDS011;2752;49.992;8.422;2023-06-14T02:39:08;4.90;;;3.07;;
5458;SDS011;2752;49.992;8.422;2023-06-14T02:41:35;8.07;;;3.70;;
5458;SDS011;2752;49.992;8.422;2023-06-14T02:44:02;5.63;;;3.50;;
5458;SDS011;2752;49.992;8.422;2023-06-14T02:46:28;7.43;;;3.70;;
5458;SDS011;2752;49.992;8.422;2023-06-14T02:48:56;5.90;;;2.73;;
5458;SDS011;2752;49.992;8.422;2023-06-14T02:51:23;6.33;;;3.57;;
5458;SDS011;2752;49.992;8.422;2023-06-14T02:53:50;5.03;;;3.37;;
5458;SDS011;2752;49.992;8.422;2023-06-14T02:56:16;7.83;;;3.23;;
5458;SDS011;2752;49.992;8.422;2023-06-14T02:58:44;4.30;;;3.40;;
5458;SDS011;2752;49.992;8.422;2023-06-14T03:01:11;5.17;;;3.00;;
5458;SDS011;2752;49.992;8.422;2023-06-14T03:03:38;4.90;;;2.90;;
5458;SDS011;2752;49.992;8.422;2023-06-14T03:06:06;4.17;;;2.87;;
5458;SDS011;2752;49.992;8.422;2023-06-14T03:08:33;6.20;;;2.70;;
5458;SDS011;2752;49.992;8.422;2023-06-14T03:11:03;4.60;;;2.90;;
5458;SDS011;2752;49.992;8.422;2023-06-14T03:13:30;5.20;;;3.10;;
5458;SDS011;2752;49.992;8.422;2023-06-14T03:15:58;7.40;;;2.97;;
5458;SDS011;2752;49.992;8.422;2023-06-14T03:18:27;6.03;;;3.30;;
5458;SDS011;2752;49.992;8.422;2023-06-14T03:20:55;5.37;;;3.30;;
5458;SDS011;2752;49.992;8.422;2023-06-14T03:23:24;5.60;;;3.10;;
5458;SDS011;2752;49.992;8.422;2023-06-14T03:25:51;4.47;;;2.73;;
5458;SDS011;2752;49.992;8.422;2023-06-14T03:28:18;12.23;;;3.33;;
5458;SDS011;2752;49.992;8.422;2023-06-14T03:30:44;6.20;;;3.20;;
5458;SDS011;2752;49.992;8.422;2023-06-14T03:33:11;3.77;;;2.50;;
5458;SDS011;2752;49.992;8.422;2023-06-14T03:35:38;5.23;;;3.07;;
5458;SDS011;2752;49.992;8.422;2023-06-14T03:38:05;6.97;;;3.00;;
5458;SDS011;2752;49.992;8.422;2023-06-14T03:40:33;6.43;;;3.33;;
5458;SDS011;2752;49.992;8.422;2023-06-14T03:43:00;12.03;;;3.10;;
5458;SDS011;2752;49.992;8.422;2023-06-14T03:45:26;4.80;;;2.83;;
5458;SDS011;2752;49.992;8.422;2023-06-14T03:47:53;4.80;;;2.50;;
5458;SDS011;2752;49.992;8.422;2023-06-14T03:50:21;6.67;;;3.50;;
5458;SDS011;2752;49.992;8.422;2023-06-14T03:52:48;4.40;;;2.80;;
5458;SDS011;2752;49.992;8.422;2023-06-14T03:55:15;4.50;;;2.87;;
5458;SDS011;2752;49.992;8.422;2023-06-14T03:57:43;4.97;;;3.10;;
5458;SDS011;2752;49.992;8.422;2023-06-14T04:00:10;6.30;;;3.00;;
5458;SDS011;2752;49.992;8.422;2023-06-14T04:02:37;5.87;;;3.70;;
5458;SDS011;2752;49.992;8.422;2023-06-14T04:05:05;4.57;;;2.53;;
5458;SDS011;2752;49.992;8.422;2023-06-14T04:07:33;7.87;;;3.07;;
5458;SDS011;2752;49.992;8.422;2023-06-14T04:10:05;5.80;;;2.80;;
5458;SDS011;2752;49.992;8.422;2023-06-14T04:12:32;5.10;;;3.23;;
5458;SDS011;2752;49.992;8.422;2023-06-14T04:15:01;6.80;;;2.90;;
5458;SDS011;2752;49.992;8.422;2023-06-14T04:17:28;4.70;;;2.67;;
5458;SDS011;2752;49.992;8.422;2023-06-14T04:19:55;3.00;;;2.40;;
5458;SDS011;2752;49.992;8.422;2023-06-14T04:22:23;7.67;;;2.90;;
5458;SDS011;2752;49.992;8.422;2023-06-14T04:24:53;4.27;;;2.80;;
5458;SDS011;2752;49.992;8.422;2023-06-14T04:27:21;5.90;;;2.93;;
5458;SDS011;2752;49.992;8.422;2023-06-14T04:29:50;10.73;;;3.30;;
5458;SDS011;2752;49.992;8.422;2023-06-14T04:32:23;5.00;;;3.10;;
5458;SDS011;2752;49.992;8.422;2023-06-14T04:34:50;6.10;;;2.93;;
5458;SDS011;2752;49.992;8.422;2023-06-14T04:37:18;9.70;;;3.40;;
5458;SDS011;2752;49.992;8.422;2023-06-14T04:39:46;7.17;;;2.60;;
5458;SDS011;2752;49.992;8.422;2023-06-14T04:42:13;5.50;;;3.20;;
5458;SDS011;2752;49.992;8.422;2023-06-14T04:44:41;5.87;;;2.90;;
5458;SDS011;2752;49.992;8.422;2023-06-14T04:47:08;5.00;;;3.17;;
5458;SDS011;2752;49.992;8.422;2023-06-14T04:49:37;6.43;;;2.50;;
5458;SDS011;2752;49.992;8.422;2023-06-14T04:52:05;5.53;;;3.23;;
5458;SDS011;2752;49.992;8.422;2023-06-14T04:54:35;3.93;;;2.90;;
5458;SDS011;2752;49.992;8.422;2023-06-14T04:57:03;4.90;;;2.83;;
5458;SDS011;2752;49.992;8.422;2023-06-14T04:59:30;6.63;;;3.07;;
5458;SDS011;2752;49.992;8.422;2023-06-14T05:01:58;5.43;;;2.93;;
5458;SDS011;2752;49.992;8.422;2023-06-14T05:04:25;3.90;;;3.00;;
5458;SDS011;2752;49.992;8.422;2023-06-14T05:06:54;5.40;;;3.13;;
5458;SDS011;2752;49.992;8.422;2023-06-14T05:09:21;3.80;;;2.60;;
5458;SDS011;2752;49.992;8.422;2023-06-14T05:11:48;5.43;;;3.27;;
5458;SDS011;2752;49.992;8.422;2023-06-14T05:14:15;13.73;;;3.30;;
5458;SDS011;2752;49.992;8.422;2023-06-14T05:16:42;5.00;;;3.10;;
5458;SDS011;2752;49.992;8.422;2023-06-14T05:19:09;5.73;;;3.53;;
5458;SDS011;2752;49.992;8.422;2023-06-14T05:21:36;5.40;;;3.27;;
5458;SDS011;2752;49.992;8.422;2023-06-14T05:24:04;6.87;;;3.30;;
5458;SDS011;2752;49.992;8.422;2023-06-14T05:26:31;5.83;;;2.70;;
5458;SDS011;2752;49.992;8.422;2023-06-14T05:28:58;5.47;;;3.57;;
5458;SDS011;2752;49.992;8.422;2023-06-14T05:31:26;10.80;;;3.10;;
5458;SDS011;2752;49.992;8.422;2023-06-14T05:33:53;7.47;;;2.40;;
5458;SDS011;2752;49.992;8.422;2023-06-14T05:36:20;6.40;;;3.13;;
5458;SDS011;2752;49.992;8.422;2023-06-14T05:38:47;4.57;;;2.43;;
5458;SDS011;2752;49.992;8.422;2023-06-14T05:41:15;5.27;;;3.00;;
5458;SDS011;2752;49.992;8.422;2023-06-14T05:43:42;4.97;;;3.40;;
5458;SDS011;2752;49.992;8.422;2023-06-14T05:46:08;6.77;;;3.00;;
5458;SDS011;2752;49.992;8.422;2023-06-14T05:48:36;5.37;;;2.83;;
5458;SDS011;2752;49.992;8.422;2023-06-14T05:51:02;4.33;;;2.67;;
5458;SDS011;2752;49.992;8.422;2023-06-14T05:53:29;6.63;;;2.70;;
5458;SDS011;2752;49.992;8.422;2023-06-14T05:55:55;7.73;;;2.80;;
5458;SDS011;2752;49.992;8.422;2023-06-14T05:58:23;6.47;;;2.90;;
5458;SDS011;2752;49.992;8.422;2023-06-14T06:00:50;7.17;;;2.53;;
5458;SDS011;2752;49.992;8.422;2023-06-14T06:03:18;4.60;;;2.73;;
5458;SDS011;2752;49.992;8.422;2023-06-14T06:05:46;5.73;;;2.27;;
5458;SDS011;2752;49.992;8.422;2023-06-14T06:08:12;4.77;;;2.70;;
5458;SDS011;2752;49.992;8.422;2023-06-14T06:10:39;5.00;;;2.53;;
5458;SDS011;2752;49.992;8.422;2023-06-14T06:13:06;4.20;;;3.00;;
5458;SDS011;2752;49.992;8.422;2023-06-14T06:15:34;3.63;;;2.50;;
5458;SDS011;2752;49.992;8.422;2023-06-14T06:18:01;3.40;;;2.70;;
5458;SDS011;2752;49.992;8.422;2023-06-14T06:20:28;6.33;;;3.00;;
5458;SDS011;2752;49.992;8.422;2023-06-14T06:22:56;2.93;;;2.13;;
5458;SDS011;2752;49.992;8.422;2023-06-14T06:25:23;5.93;;;2.90;;
5458;SDS011;2752;49.992;8.422;2023-06-14T06:27:50;5.77;;;2.57;;
5458;SDS011;2752;49.992;8.422;2023-06-14T06:30:17;4.17;;;3.27;;
5458;SDS011;2752;49.992;8.422;2023-06-14T06:32:45;4.60;;;3.00;;
5458;SDS011;2752;49.992;8.422;2023-06-14T06:35:12;5.60;;;2.13;;
5458;SDS011;2752;49.992;8.422;2023-06-14T06:37:40;4.93;;;3.13;;
5458;SDS011;2752;49.992;8.422;2023-06-14T06:40:08;7.23;;;2.77;;
5458;SDS011;2752;49.992;8.422;2023-06-14T06:42:35;6.10;;;2.67;;
5458;SDS011;2752;49.992;8.422;2023-06-14T06:45:02;4.20;;;2.57;;
5458;SDS011;2752;49.992;8.422;2023-06-14T06:47:29;8.73;;;3.53;;
5458;SDS011;2752;49.992;8.422;2023-06-14T06:49:57;5.30;;;2.40;;
5458;SDS011;2752;49.992;8.422;2023-06-14T06:52:24;9.20;;;3.33;;
5458;SDS011;2752;49.992;8.422;2023-06-14T06:54:51;6.50;;;2.93;;
5458;SDS011;2752;49.992;8.422;2023-06-14T06:57:20;6.73;;;3.03;;
5458;SDS011;2752;49.992;8.422;2023-06-14T06:59:47;4.43;;;2.37;;
5458;SDS011;2752;49.992;8.422;2023-06-14T07:02:14;8.10;;;2.60;;
5458;SDS011;2752;49.992;8.422;2023-06-14T07:04:41;4.23;;;2.70;;
5458;SDS011;2752;49.992;8.422;2023-06-14T07:07:09;7.13;;;2.87;;
5458;SDS011;2752;49.992;8.422;2023-06-14T07:09:35;5.00;;;2.50;;
5458;SDS011;2752;49.992;8.422;2023-06-14T07:12:02;5.57;;;2.67;;
5458;SDS011;2752;49.992;8.422;2023-06-14T07:14:29;5.60;;;2.80;;
5458;SDS011;2752;49.992;8.422;2023-06-14T07:16:56;4.37;;;2.50;;
5458;SDS011;2752;49.992;8.422;2023-06-14T07:19:23;3.80;;;2.30;;
5458;SDS011;2752;49.992;8.422;2023-06-14T07:21:49;4.03;;;2.60;;
5458;SDS011;2752;49.992;8.422;2023-06-14T07:24:17;6.13;;;2.50;;
5458;SDS011;2752;49.992;8.422;2023-06-14T07:26:46;3.20;;;2.50;;
5458;SDS011;2752;49.992;8.422;2023-06-14T07:29:13;10.53;;;3.20;;
5458;SDS011;2752;49.992;8.422;2023-06-14T07:31:41;3.37;;;2.10;;
5458;SDS011;2752;49.992;8.422;2023-06-14T07:34:08;11.00;;;2.30;;
5458;SDS011;2752;49.992;8.422;2023-06-14T07:36:34;4.73;;;2.20;;
5458;SDS011;2752;49.992;8.422;2023-06-14T07:39:01;4.70;;;2.13;;
5458;SDS011;2752;49.992;8.422;2023-06-14T07:41:30;3.17;;;2.30;;
5458;SDS011;2752;49.992;8.422;2023-06-14T07:43:57;7.03;;;2.20;;
5458;SDS011;2752;49.992;8.422;2023-06-14T07:46:24;2.60;;;2.07;;
5458;SDS011;2752;49.992;8.422;2023-06-14T07:48:50;5.60;;;1.87;;
5458;SDS011;2752;49.992;8.422;2023-06-14T07:51:17;6.63;;;1.90;;
5458;SDS011;2752;49.992;8.422;2023-06-14T07:53:44;2.97;;;1.73;;
5458;SDS011;2752;49.992;8.422;2023-06-14T07:56:11;3.23;;;2.13;;
5458;SDS011;2752;49.992;8.422;2023-06-14T07:58:39;5.63;;;2.20;;
5458;SDS011;2752;49.992;8.422;2023-06-14T08:01:05;4.83;;;2.43;;
5458;SDS011;2752;49.992;8.422;2023-06-14T08:03:33;2.43;;;1.80;;
5458;SDS011;2752;49.992;8.422;2023-06-14T08:06:01;6.27;;;1.90;;
5458;SDS011;2752;49.992;8.422;2023-06-14T08:08:29;4.27;;;1.90;;
5458;SDS011;2752;49.992;8.422;2023-06-14T08:10:57;4.20;;;2.00;;
5458;SDS011;2752;49.992;8.422;2023-06-14T08:13:24;3.50;;;2.33;;
5458;SDS011;2752;49.992;8.422;2023-06-14T08:15:52;2.23;;;1.60;;
5458;SDS011;2752;49.992;8.422;2023-06-14T08:18:18;6.00;;;1.83;;
5458;SDS011;2752;49.992;8.422;2023-06-14T08:20:45;2.53;;;1.60;;
5458;SDS011;2752;49.992;8.422;2023-06-14T08:23:14;2.83;;;1.83;;
5458;SDS011;2752;49.992;8.422;2023-06-14T08:25:41;2.57;;;1.70;;
5458;SDS011;2752;49.992;8.422;2023-06-14T08:28:07;2.10;;;1.60;;
5458;SDS011;2752;49.992;8.422;2023-06-14T08:30:34;3.73;;;1.67;;
5458;SDS011;2752;49.992;8.422;2023-06-14T08:33:02;2.57;;;2.00;;
5458;SDS011;2752;49.992;8.422;2023-06-14T08:35:29;4.57;;;1.90;;
5458;SDS011;2752;49.992;8.422;2023-06-14T08:37:55;6.50;;;1.70;;
5458;SDS011;2752;49.992;8.422;2023-06-14T08:40:22;3.53;;;1.80;;
5458;SDS011;2752;49.992;8.422;2023-06-14T08:42:50;2.70;;;1.77;;
5458;SDS011;2752;49.992;8.422;2023-06-14T08:45:18;4.73;;;2.00;;
5458;SDS011;2752;49.992;8.422;2023-06-14T08:47:46;5.97;;;2.10;;
5458;SDS011;2752;49.992;8.422;2023-06-14T08:50:18;2.80;;;1.53;;
5458;SDS011;2752;49.992;8.422;2023-06-14T08:52:46;3.83;;;1.90;;
5458;SDS011;2752;49.992;8.422;2023-06-14T08:55:18;3.30;;;2.10;;
5458;SDS011;2752;49.992;8.422;2023-06-14T08:57:46;3.43;;;1.90;;
5458;SDS011;2752;49.992;8.422;2023-06-14T09:00:14;3.77;;;1.50;;
5458;SDS011;2752;49.992;8.422;2023-06-14T09:02:42;4.10;;;1.80;;
5458;SDS011;2752;49.992;8.422;2023-06-14T09:05:09;2.47;;;1.40;;
5458;SDS011;2752;49.992;8.422;2023-06-14T09:07:40;2.50;;;1.73;;
5458;SDS011;2752;49.992;8.422;2023-06-14T09:10:08;9.03;;;2.40;;
5458;SDS011;2752;49.992;8.422;2023-06-14T09:12:35;8.53;;;1.40;;
5458;SDS011;2752;49.992;8.422;2023-06-14T09:15:02;2.50;;;1.50;;
5458;SDS011;2752;49.992;8.422;2023-06-14T09:17:32;2.37;;;1.80;;
5458;SDS011;2752;49.992;8.422;2023-06-14T09:20:00;2.33;;;1.40;;
5458;SDS011;2752;49.992;8.422;2023-06-14T09:22:30;1.80;;;1.30;;
5458;SDS011;2752;49.992;8.422;2023-06-14T09:24:58;1.80;;;1.23;;
5458;SDS011;2752;49.992;8.422;2023-06-14T09:27:25;3.70;;;1.70;;
5458;SDS011;2752;49.992;8.422;2023-06-14T09:29:53;1.87;;;1.23;;
5458;SDS011;2752;49.992;8.422;2023-06-14T09:32:20;3.43;;;1.60;;
5458;SDS011;2752;49.992;8.422;2023-06-14T09:34:47;17.17;;;2.03;;
5458;SDS011;2752;49.992;8.422;2023-06-14T09:37:25;2.17;;;1.20;;
5458;SDS011;2752;49.992;8.422;2023-06-14T09:39:53;1.80;;;1.30;;
5458;SDS011;2752;49.992;8.422;2023-06-14T09:42:21;2.60;;;1.40;;
5458;SDS011;2752;49.992;8.422;2023-06-14T09:44:51;3.00;;;1.60;;
5458;SDS011;2752;49.992;8.422;2023-06-14T09:47:18;2.80;;;2.00;;
5458;SDS011;2752;49.992;8.422;2023-06-14T09:49:45;1.33;;;1.10;;
5458;SDS011;2752;49.992;8.422;2023-06-14T09:52:14;2.50;;;1.60;;
5458;SDS011;2752;49.992;8.422;2023-06-14T09:54:42;2.50;;;1.30;;
5458;SDS011;2752;49.992;8.422;2023-06-14T09:57:11;5.53;;;1.53;;
5458;SDS011;2752;49.992;8.422;2023-06-14T09:59:41;1.90;;;1.40;;
5458;SDS011;2752;49.992;8.422;2023-06-14T10:02:10;4.70;;;2.00;;
5458;SDS011;2752;49.992;8.422;2023-06-14T10:04:40;12.97;;;1.70;;
5458;SDS011;2752;49.992;8.422;2023-06-14T10:07:12;2.30;;;1.50;;
5458;SDS011;2752;49.992;8.422;2023-06-14T10:09:41;2.40;;;1.73;;
5458;SDS011;2752;49.992;8.422;2023-06-14T10:12:13;2.23;;;1.60;;
5458;SDS011;2752;49.992;8.422;2023-06-14T10:14:47;2.37;;;1.80;;
5458;SDS011;2752;49.992;8.422;2023-06-14T10:17:17;2.50;;;1.43;;
5458;SDS011;2752;49.992;8.422;2023-06-14T10:19:55;1.73;;;1.60;;
5458;SDS011;2752;49.992;8.422;2023-06-14T10:22:30;2.73;;;1.63;;
5458;SDS011;2752;49.992;8.422;2023-06-14T10:25:01;2.00;;;1.60;;
5458;SDS011;2752;49.992;8.422;2023-06-14T10:27:37;4.67;;;1.70;;
5458;SDS011;2752;49.992;8.422;2023-06-14T10:30:07;2.07;;;1.40;;
5458;SDS011;2752;49.992;8.422;2023-06-14T10:32:34;2.03;;;1.73;;
5458;SDS011;2752;49.992;8.422;2023-06-14T10:35:01;1.60;;;1.20;;
5458;SDS011;2752;49.992;8.422;2023-06-14T10:37:30;2.50;;;1.67;;
5458;SDS011;2752;49.992;8.422;2023-06-14T10:39:57;2.97;;;1.60;;
5458;SDS011;2752;49.992;8.422;2023-06-14T10:42:27;3.40;;;1.23;;
5458;SDS011;2752;49.992;8.422;2023-06-14T10:44:54;6.70;;;1.93;;
5458;SDS011;2752;49.992;8.422;2023-06-14T10:47:24;2.27;;;1.40;;
5458;SDS011;2752;49.992;8.422;2023-06-14T10:49:55;2.47;;;1.70;;
5458;SDS011;2752;49.992;8.422;2023-06-14T10:52:25;2.03;;;1.83;;
5458;SDS011;2752;49.992;8.422;2023-06-14T10:57:38;3.03;;;1.60;;
5458;SDS011;2752;49.992;8.422;2023-06-14T11:00:06;1.63;;;1.13;;
5458;SDS011;2752;49.992;8.422;2023-06-14T11:05:48;2.20;;;1.60;;
5458;SDS011;2752;49.992;8.422;2023-06-14T11:11:19;2.83;;;1.50;;
5458;SDS011;2752;49.992;8.422;2023-06-14T11:13:48;2.67;;;1.63;;
5458;SDS011;2752;49.992;8.422;2023-06-14T11:16:17;3.33;;;1.43;;
5458;SDS011;2752;49.992;8.422;2023-06-14T11:18:44;1.73;;;1.23;;
5458;SDS011;2752;49.992;8.422;2023-06-14T11:21:16;7.40;;;1.80;;
5458;SDS011;2752;49.992;8.422;2023-06-14T11:23:48;3.37;;;2.07;;
5458;SDS011;2752;49.992;8.422;2023-06-14T11:26:15;2.90;;;1.63;;
5458;SDS011;2752;49.992;8.422;2023-06-14T11:28:42;3.93;;;1.80;;
5458;SDS011;2752;49.992;8.422;2023-06-14T11:31:09;3.03;;;1.80;;
5458;SDS011;2752;49.992;8.422;2023-06-14T11:33:36;2.60;;;1.60;;
5458;SDS011;2752;49.992;8.422;2023-06-14T11:36:03;4.70;;;1.80;;
5458;SDS011;2752;49.992;8.422;2023-06-14T11:38:36;2.10;;;1.80;;
5458;SDS011;2752;49.992;8.422;2023-06-14T11:41:03;2.40;;;1.40;;
5458;SDS011;2752;49.992;8.422;2023-06-14T11:43:29;2.33;;;1.93;;
5458;SDS011;2752;49.992;8.422;2023-06-14T11:45:58;2.10;;;1.70;;
5458;SDS011;2752;49.992;8.422;2023-06-14T11:48:35;4.43;;;2.33;;
5458;SDS011;2752;49.992;8.422;2023-06-14T11:51:02;3.67;;;1.50;;
5458;SDS011;2752;49.992;8.422;2023-06-14T11:53:29;3.33;;;1.80;;
5458;SDS011;2752;49.992;8.422;2023-06-14T11:55:57;4.30;;;1.33;;
5458;SDS011;2752;49.992;8.422;2023-06-14T11:58:24;2.73;;;2.27;;
5458;SDS011;2752;49.992;8.422;2023-06-14T12:00:51;9.70;;;2.00;;
5458;SDS011;2752;49.992;8.422;2023-06-14T12:03:22;3.67;;;1.90;;
5458;SDS011;2752;49.992;8.422;2023-06-14T12:05:49;1.80;;;1.70;;
5458;SDS011;2752;49.992;8.422;2023-06-14T12:08:16;1.80;;;1.43;;
5458;SDS011;2752;49.992;8.422;2023-06-14T12:10:43;3.10;;;1.73;;
5458;SDS011;2752;49.992;8.422;2023-06-14T12:13:11;2.00;;;1.70;;
5458;SDS011;2752;49.992;8.422;2023-06-14T12:15:38;3.07;;;2.23;;
5458;SDS011;2752;49.992;8.422;2023-06-14T12:18:05;2.57;;;1.67;;
5458;SDS011;2752;49.992;8.422;2023-06-14T12:20:33;2.43;;;1.83;;
5458;SDS011;2752;49.992;8.422;2023-06-14T12:23:02;1.97;;;1.33;;
5458;SDS011;2752;49.992;8.422;2023-06-14T12:25:30;2.20;;;1.30;;
5458;SDS011;2752;49.992;8.422;2023-06-14T12:27:59;7.00;;;1.60;;
5458;SDS011;2752;49.992;8.422;2023-06-14T12:30:31;1.47;;;1.37;;
5458;SDS011;2752;49.992;8.422;2023-06-14T12:32:58;3.13;;;1.63;;
5458;SDS011;2752;49.992;8.422;2023-06-14T12:35:25;2.23;;;1.67;;
5458;SDS011;2752;49.992;8.422;2023-06-14T12:37:52;3.23;;;1.70;;
5458;SDS011;2752;49.992;8.422;2023-06-14T12:40:18;3.73;;;1.50;;
5458;SDS011;2752;49.992;8.422;2023-06-14T12:42:47;3.20;;;1.50;;
5458;SDS011;2752;49.992;8.422;2023-06-14T12:45:13;2.00;;;1.27;;
5458;SDS011;2752;49.992;8.422;2023-06-14T12:47:42;6.07;;;1.60;;
5458;SDS011;2752;49.992;8.422;2023-06-14T12:50:08;2.23;;;1.47;;
5458;SDS011;2752;49.992;8.422;2023-06-14T12:52:35;2.03;;;1.50;;
5458;SDS011;2752;49.992;8.422;2023-06-14T12:55:02;1.60;;;1.50;;
5458;SDS011;2752;49.992;8.422;2023-06-14T12:57:30;4.17;;;1.33;;
5458;SDS011;2752;49.992;8.422;2023-06-14T12:59:56;3.73;;;1.93;;
5458;SDS011;2752;49.992;8.422;2023-06-14T13:02:23;3.43;;;1.43;;
5458;SDS011;2752;49.992;8.422;2023-06-14T13:04:52;3.70;;;1.50;;
5458;SDS011;2752;49.992;8.422;2023-06-14T13:07:18;5.87;;;1.90;;
5458;SDS011;2752;49.992;8.422;2023-06-14T13:09:45;3.43;;;1.73;;
5458;SDS011;2752;49.992;8.422;2023-06-14T13:12:12;2.70;;;1.87;;
5458;SDS011;2752;49.992;8.422;2023-06-14T13:14:39;5.07;;;1.73;;
5458;SDS011;2752;49.992;8.422;2023-06-14T13:17:07;2.33;;;1.87;;
5458;SDS011;2752;49.992;8.422;2023-06-14T13:19:34;3.20;;;1.83;;
5458;SDS011;2752;49.992;8.422;2023-06-14T13:22:02;4.00;;;2.03;;
5458;SDS011;2752;49.992;8.422;2023-06-14T13:24:30;6.20;;;2.20;;
5458;SDS011;2752;49.992;8.422;2023-06-14T13:26:56;2.60;;;1.97;;
5458;SDS011;2752;49.992;8.422;2023-06-14T13:29:23;3.00;;;2.33;;
5458;SDS011;2752;49.992;8.422;2023-06-14T13:31:51;3.73;;;2.20;;
5458;SDS011;2752;49.992;8.422;2023-06-14T13:34:18;4.50;;;2.30;;
5458;SDS011;2752;49.992;8.422;2023-06-14T13:36:45;3.90;;;2.30;;
5458;SDS011;2752;49.992;8.422;2023-06-14T13:39:13;2.53;;;2.10;;
5458;SDS011;2752;49.992;8.422;2023-06-14T13:41:40;2.13;;;1.90;;
5458;SDS011;2752;49.992;8.422;2023-06-14T13:44:07;7.00;;;2.13;;
5458;SDS011;2752;49.992;8.422;2023-06-14T13:46:36;2.73;;;1.70;;
5458;SDS011;2752;49.992;8.422;2023-06-14T13:49:02;3.50;;;1.70;;
5458;SDS011;2752;49.992;8.422;2023-06-14T13:51:30;3.73;;;2.20;;
5458;SDS011;2752;49.992;8.422;2023-06-14T13:53:58;3.27;;;2.03;;
5458;SDS011;2752;49.992;8.422;2023-06-14T13:56:26;4.63;;;1.97;;
5458;SDS011;2752;49.992;8.422;2023-06-14T13:58:53;2.93;;;1.83;;
5458;SDS011;2752;49.992;8.422;2023-06-14T14:01:19;4.30;;;2.13;;
5458;SDS011;2752;49.992;8.422;2023-06-14T14:03:46;3.80;;;2.10;;
5458;SDS011;2752;49.992;8.422;2023-06-14T14:06:14;2.33;;;1.77;;
5458;SDS011;2752;49.992;8.422;2023-06-14T14:08:41;3.13;;;1.43;;
5458;SDS011;2752;49.992;8.422;2023-06-14T14:11:08;2.60;;;2.13;;
5458;SDS011;2752;49.992;8.422;2023-06-14T14:13:36;3.37;;;2.07;;
5458;SDS011;2752;49.992;8.422;2023-06-14T14:16:03;2.40;;;1.73;;
5458;SDS011;2752;49.992;8.422;2023-06-14T14:18:31;1.60;;;1.40;;
5458;SDS011;2752;49.992;8.422;2023-06-14T14:20:58;1.87;;;1.67;;
5458;SDS011;2752;49.992;8.422;2023-06-14T14:23:25;3.20;;;1.90;;
5458;SDS011;2752;49.992;8.422;2023-06-14T14:25:52;3.10;;;2.30;;
5458;SDS011;2752;49.992;8.422;2023-06-14T14:28:19;2.93;;;1.93;;
5458;SDS011;2752;49.992;8.422;2023-06-14T14:30:47;5.87;;;2.10;;
5458;SDS011;2752;49.992;8.422;2023-06-14T14:33:14;3.37;;;1.80;;
5458;SDS011;2752;49.992;8.422;2023-06-14T14:35:42;2.58;;;2.00;;
5458;SDS011;2752;49.992;8.422;2023-06-14T14:38:10;2.80;;;2.00;;
5458;SDS011;2752;49.992;8.422;2023-06-14T14:40:37;3.57;;;1.90;;
5458;SDS011;2752;49.992;8.422;2023-06-14T14:43:05;2.70;;;1.83;;
5458;SDS011;2752;49.992;8.422;2023-06-14T14:45:31;1.83;;;1.40;;
5458;SDS011;2752;49.992;8.422;2023-06-14T14:48:00;2.57;;;1.83;;
5458;SDS011;2752;49.992;8.422;2023-06-14T14:50:27;2.53;;;1.63;;
5458;SDS011;2752;49.992;8.422;2023-06-14T14:52:53;1.93;;;1.70;;
5458;SDS011;2752;49.992;8.422;2023-06-14T14:55:20;1.57;;;1.47;;
5458;SDS011;2752;49.992;8.422;2023-06-14T14:57:47;3.93;;;1.60;;
5458;SDS011;2752;49.992;8.422;2023-06-14T15:00:14;2.73;;;1.83;;
5458;SDS011;2752;49.992;8.422;2023-06-14T15:02:41;5.03;;;1.80;;
5458;SDS011;2752;49.992;8.422;2023-06-14T15:05:09;4.67;;;1.77;;
5458;SDS011;2752;49.992;8.422;2023-06-14T15:07:35;1.30;;;1.20;;
5458;SDS011;2752;49.992;8.422;2023-06-14T15:10:05;2.37;;;1.43;;
5458;SDS011;2752;49.992;8.422;2023-06-14T15:12:33;3.20;;;1.87;;
5458;SDS011;2752;49.992;8.422;2023-06-14T15:15:00;7.80;;;2.23;;
5458;SDS011;2752;49.992;8.422;2023-06-14T15:17:26;3.00;;;1.90;;
5458;SDS011;2752;49.992;8.422;2023-06-14T15:19:53;4.47;;;1.90;;
5458;SDS011;2752;49.992;8.422;2023-06-14T15:22:21;2.27;;;2.03;;
5458;SDS011;2752;49.992;8.422;2023-06-14T15:24:48;2.40;;;1.40;;
5458;SDS011;2752;49.992;8.422;2023-06-14T15:27:15;2.50;;;1.97;;